Time;durP1;ratioP1;P1;durP2;ratioP2;P2;SDS_P1;SDS_P2;PMS_P1;PMS_P2;Temp;Humidity;BMP_temperature;BMP_pressure;BME280_temperature;BME280_humidity;BME280_pressure;Samples;Min_cycle;Max_cycle;Signal;HPM_P1;HPM_P2
2022/12/28 00:00:05;;;;;;;21.47;9.63;;;1.70;99.90;;;;;;4449896;28;657221;-71
2022/12/28 00:02:52;;;;;;;26.63;9.73;;;1.60;99.90;;;;;;4434920;28;656616;-71
2022/12/28 00:05:39;;;;;;;25.07;9.83;;;1.50;99.90;;;;;;4453453;28;656704;-71
2022/12/28 00:08:26;;;;;;;24.43;9.10;;;1.40;99.90;;;;;;4436044;28;656683;-71
2022/12/28 00:11:16;;;;;;;26.07;9.20;;;1.50;99.90;;;;;;4453912;28;656581;-72
2022/12/28 00:14:03;;;;;;;22.27;9.27;;;1.30;99.90;;;;;;4431447;28;656563;-71
2022/12/28 00:16:51;;;;;;;24.20;9.70;;;1.20;99.90;;;;;;4426266;28;656614;-71
2022/12/28 00:19:38;;;;;;;24.27;9.83;;;1.20;99.90;;;;;;4450306;28;657240;-71
2022/12/28 00:22:26;;;;;;;21.67;9.13;;;1.10;99.90;;;;;;4432050;28;656638;-69
2022/12/28 00:25:14;;;;;;;22.60;9.63;;;1.00;99.90;;;;;;4448560;28;656178;-71
2022/12/28 00:28:02;;;;;;;21.67;8.87;;;1.00;99.90;;;;;;4422537;28;656631;-71
2022/12/28 00:30:50;;;;;;;54.67;18.27;;;0.90;99.90;;;;;;4449717;28;656985;-69
2022/12/28 00:33:37;;;;;;;143.53;47.90;;;0.80;99.90;;;;;;4451611;28;658509;-71
2022/12/28 00:36:25;;;;;;;53.80;20.13;;;0.80;99.90;;;;;;4447253;28;658609;-71
2022/12/28 00:39:12;;;;;;;31.17;12.97;;;0.80;99.90;;;;;;4452401;28;659213;-71
2022/12/28 00:42:00;;;;;;;24.67;9.27;;;0.80;99.90;;;;;;4455251;28;657119;-70
2022/12/28 00:44:48;;;;;;;23.00;9.60;;;0.80;99.90;;;;;;4424161;28;657824;-71
2022/12/28 00:47:35;;;;;;;29.00;11.10;;;0.70;99.90;;;;;;4421306;28;657077;-70
2022/12/28 00:50:23;;;;;;;23.00;10.33;;;0.70;99.90;;;;;;4451189;28;658171;-71
2022/12/28 00:53:10;;;;;;;25.80;10.10;;;0.70;99.90;;;;;;4446182;28;657571;-69
2022/12/28 00:56:05;;;;;;;26.37;11.37;;;0.70;99.90;;;;;;4453023;28;658001;-71
2022/12/28 00:58:55;;;;;;;26.03;10.93;;;0.60;99.90;;;;;;4409170;28;658621;-71
2022/12/28 01:01:44;;;;;;;34.00;13.80;;;0.60;99.90;;;;;;4428784;28;658549;-71
2022/12/28 01:04:31;;;;;;;40.23;14.77;;;0.60;99.90;;;;;;4437924;28;658383;-71
2022/12/28 01:07:19;;;;;;;38.77;13.10;;;0.60;99.90;;;;;;4456018;28;657745;-70
2022/12/28 01:10:07;;;;;;;45.33;15.97;;;0.60;99.90;;;;;;4433409;28;657623;-71
2022/12/28 01:12:54;;;;;;;40.93;13.77;;;0.60;99.90;;;;;;4453920;28;658001;-70
2022/12/28 01:15:41;;;;;;;24.83;11.25;;;0.60;99.90;;;;;;4437811;28;657875;-71
2022/12/28 01:18:30;;;;;;;33.30;13.40;;;0.60;99.90;;;;;;4453780;28;658632;-70
2022/12/28 01:21:18;;;;;;;38.23;13.13;;;0.80;1.00;;;;;;4426961;28;658230;-71
2022/12/28 01:24:06;;;;;;;29.63;11.47;;;0.70;99.90;;;;;;4437831;28;656697;-70
2022/12/28 01:26:53;;;;;;;34.57;14.37;;;0.70;1.00;;;;;;4454125;28;657630;-71
2022/12/28 01:29:41;;;;;;;34.37;14.83;;;0.60;1.00;;;;;;4427124;28;656571;-70
2022/12/28 01:32:28;;;;;;;39.27;15.33;;;0.50;1.00;;;;;;4456975;28;657098;-71
2022/12/28 01:35:17;;;;;;;32.93;13.67;;;0.40;99.90;;;;;;4438790;28;656579;-69
2022/12/28 01:38:04;;;;;;;37.92;14.68;;;0.40;99.90;;;;;;4453506;28;657132;-71
2022/12/28 01:40:51;;;;;;;37.95;13.95;;;0.30;99.90;;;;;;4435687;28;658169;-70
2022/12/28 01:43:40;;;;;;;36.70;14.20;;;0.30;99.90;;;;;;4453728;28;657566;-71
2022/12/28 01:46:32;;;;;;;40.25;14.65;;;0.20;99.90;;;;;;4410550;28;658777;-70
2022/12/28 01:49:21;;;;;;;35.67;15.00;;;0.10;99.90;;;;;;4434140;28;657438;-70
2022/12/28 01:52:11;;;;;;;31.57;14.87;;;0.00;99.90;;;;;;4431682;28;658296;-70
2022/12/28 01:55:00;;;;;;;47.57;17.93;;;-0.10;99.90;;;;;;4430899;28;657846;-70
2022/12/28 01:57:50;;;;;;;39.30;15.80;;;-0.10;99.90;;;;;;4430318;28;660156;-71
2022/12/28 02:00:37;;;;;;;37.53;15.20;;;-0.20;99.90;;;;;;4435785;28;659449;-70
2022/12/28 02:03:26;;;;;;;38.10;15.00;;;-0.30;99.90;;;;;;4448744;28;658898;-69
2022/12/28 02:06:14;;;;;;;38.77;14.80;;;-0.40;99.90;;;;;;4453183;28;658237;-69
2022/12/28 02:09:04;;;;;;;72.97;20.93;;;-0.50;99.90;;;;;;4434236;28;659190;-70
2022/12/28 02:11:52;;;;;;;51.23;17.17;;;-0.50;99.90;;;;;;4434854;28;658886;-71
2022/12/28 02:14:39;;;;;;;39.40;14.63;;;-0.70;99.90;;;;;;4451026;28;658827;-70
2022/12/28 02:17:26;;;;;;;36.53;13.70;;;-0.80;99.90;;;;;;4435265;28;658266;-70
2022/12/28 02:20:14;;;;;;;33.60;13.40;;;-0.80;99.90;;;;;;4451040;28;659088;-70
2022/12/28 02:23:24;;;;;;;35.47;12.98;;;-0.90;99.90;;;;;;4431359;28;658997;-70
2022/12/28 02:26:35;;;;;;;29.90;12.87;;;-0.90;99.90;;;;;;4429192;28;658760;-70
2022/12/28 02:29:42;;;;;;;29.83;12.53;;;-1.00;99.90;;;;;;4430059;28;658714;-70
2022/12/28 02:32:44;;;;;;;33.10;14.03;;;-1.00;99.90;;;;;;4427689;28;658774;-69
2022/12/28 02:35:36;;;;;;;166.40;36.87;;;-1.00;99.90;;;;;;4424860;28;658477;-70
2022/12/28 02:38:26;;;;;;;87.40;25.00;;;-1.00;99.90;;;;;;4432557;28;661082;-70
2022/12/28 02:41:14;;;;;;;51.13;17.87;;;-1.10;99.90;;;;;;4425917;28;659161;-70
2022/12/28 02:44:01;;;;;;;36.43;13.63;;;-1.20;99.90;;;;;;4427631;28;658578;-70
2022/12/28 02:50:06;;;;;;;45.53;17.87;;;-1.10;99.90;;;;;;4428601;28;659031;-70
2022/12/28 02:53:11;;;;;;;40.00;15.27;;;-1.10;99.90;;;;;;4430823;28;658988;-70
2022/12/28 02:56:07;;;;;;;36.83;13.20;;;-1.20;99.90;;;;;;4416081;28;658742;-70
2022/12/28 02:59:17;;;;;;;33.53;13.83;;;-1.20;99.90;;;;;;4422715;28;659036;-70
2022/12/28 03:02:23;;;;;;;33.27;13.80;;;-1.10;99.90;;;;;;4424893;28;659140;-70
2022/12/28 03:05:13;;;;;;;31.40;14.07;;;-1.20;99.90;;;;;;4409253;28;658849;-69
2022/12/28 03:08:19;;;;;;;32.73;13.17;;;-1.20;99.90;;;;;;4427462;28;658312;-70
2022/12/28 03:11:08;;;;;;;28.50;11.33;;;-1.20;99.90;;;;;;4426117;28;658981;-70
2022/12/28 03:13:57;;;;;;;31.23;12.77;;;-1.20;99.90;;;;;;4427898;28;659087;-69
2022/12/28 03:32:13;;;;;;;33.50;12.60;;;-1.30;99.90;;;;;;4403552;28;660342;-70
2022/12/28 03:35:02;;;;;;;31.90;12.53;;;-1.30;99.90;;;;;;4446032;28;658991;-69
2022/12/28 03:37:52;;;;;;;25.57;10.70;;;-1.30;99.90;;;;;;4443980;28;658687;-70
2022/12/28 03:40:42;;;;;;;28.40;11.03;;;-1.30;99.90;;;;;;4429246;28;658550;-70
2022/12/28 03:43:39;;;;;;;24.13;10.60;;;-1.40;99.90;;;;;;4428197;28;658765;-70
2022/12/28 03:46:28;;;;;;;24.77;10.37;;;-1.30;99.90;;;;;;4405619;28;659120;-70
2022/12/28 03:49:16;;;;;;;28.43;11.90;;;-1.40;99.90;;;;;;4431610;28;658569;-70
2022/12/28 03:52:05;;;;;;;22.75;10.55;;;-1.30;99.90;;;;;;4453152;28;659112;-70
2022/12/28 03:54:52;;;;;;;32.73;13.37;;;-1.40;99.90;;;;;;4427025;28;659502;-70
2022/12/28 03:57:39;;;;;;;31.70;12.60;;;-1.40;99.90;;;;;;4453111;28;658197;-70
2022/12/28 04:00:26;;;;;;;298.33;16.63;;;-1.50;99.90;;;;;;4432793;28;658952;-69
2022/12/28 04:03:13;;;;;;;19.53;9.37;;;-1.50;99.90;;;;;;4450886;28;660630;-70
2022/12/28 04:06:01;;;;;;;19.70;9.53;;;-1.50;99.90;;;;;;4422596;28;657524;-70
2022/12/28 04:08:49;;;;;;;20.67;9.17;;;-1.50;99.90;;;;;;4447632;28;657899;-70
2022/12/28 04:11:36;;;;;;;19.73;9.20;;;-1.50;99.90;;;;;;4422866;28;657924;-70
2022/12/28 04:14:24;;;;;;;20.83;9.33;;;-1.50;99.90;;;;;;4444863;28;658214;-70
2022/12/28 04:17:11;;;;;;;19.00;8.70;;;-1.50;99.90;;;;;;4422068;28;657674;-70
2022/12/28 04:19:58;;;;;;;21.87;9.07;;;-1.60;99.90;;;;;;4449769;28;658204;-70
2022/12/28 04:22:45;;;;;;;19.90;9.93;;;-1.60;99.90;;;;;;4432164;28;658403;-69
2022/12/28 04:25:34;;;;;;;22.77;10.30;;;-1.60;99.90;;;;;;4448180;28;659808;-70
2022/12/28 04:28:21;;;;;;;22.23;9.83;;;-1.60;99.90;;;;;;4431464;28;658187;-70
2022/12/28 04:31:10;;;;;;;20.63;10.00;;;-1.60;99.90;;;;;;4453794;28;657491;-70
2022/12/28 04:33:57;;;;;;;22.67;9.60;;;-1.60;99.90;;;;;;4421559;28;659236;-70
2022/12/28 04:36:46;;;;;;;23.23;9.40;;;-1.60;99.90;;;;;;4446130;28;657909;-69
2022/12/28 04:39:33;;;;;;;22.53;9.57;;;-1.70;99.90;;;;;;4450582;28;657698;-70
2022/12/28 04:42:22;;;;;;;19.17;9.55;;;-1.70;99.90;;;;;;4433851;28;657578;-69
2022/12/28 04:45:10;;;;;;;18.37;8.83;;;-1.70;99.90;;;;;;4445589;28;657260;-71
2022/12/28 04:47:57;;;;;;;26.07;10.93;;;-1.70;99.90;;;;;;4421466;28;659165;-70
2022/12/28 04:50:44;;;;;;;27.13;10.15;;;-1.70;99.90;;;;;;4442269;28;658425;-70
2022/12/28 04:53:31;;;;;;;20.63;9.90;;;-1.70;99.90;;;;;;4422190;28;659143;-71
2022/12/28 04:56:19;;;;;;;25.37;9.50;;;-1.70;99.90;;;;;;4450286;28;657759;-70
2022/12/28 04:59:08;;;;;;;18.87;9.37;;;-1.70;99.90;;;;;;4433833;28;657476;-70
2022/12/28 05:01:55;;;;;;;17.53;9.13;;;-1.70;99.90;;;;;;4429418;28;657245;-69
2022/12/28 05:04:43;;;;;;;20.80;8.53;;;-1.70;99.90;;;;;;4448639;28;658949;-71
2022/12/28 05:07:30;;;;;;;18.10;7.87;;;-1.80;99.90;;;;;;4444091;28;657445;-69
2022/12/28 05:10:18;;;;;;;21.17;7.57;;;-1.80;99.90;;;;;;4454165;28;657936;-70
2022/12/28 05:13:05;;;;;;;26.23;8.87;;;-1.80;99.90;;;;;;4443440;28;657774;-70
2022/12/28 05:15:54;;;;;;;22.47;7.73;;;-1.70;99.90;;;;;;4449138;28;658007;-70
2022/12/28 05:18:41;;;;;;;27.08;8.45;;;-1.70;99.90;;;;;;4428118;28;657256;-70
2022/12/28 05:21:28;;;;;;;23.40;9.13;;;-1.70;99.90;;;;;;4448492;28;657952;-70
2022/12/28 05:24:16;;;;;;;31.60;9.17;;;-1.80;99.90;;;;;;4432527;28;657704;-70
2022/12/28 05:27:03;;;;;;;33.13;11.43;;;-1.80;99.90;;;;;;4451312;28;658493;-70
2022/12/28 05:29:50;;;;;;;28.03;10.20;;;-1.80;99.90;;;;;;4290947;28;658403;-69
2022/12/28 05:32:39;;;;;;;26.83;12.13;;;-1.90;99.90;;;;;;4265484;28;658192;-69
2022/12/28 05:35:26;;;;;;;25.02;11.35;;;-1.90;99.90;;;;;;4313294;28;659258;-70
2022/12/28 05:38:13;;;;;;;32.20;11.07;;;-2.00;99.90;;;;;;4447708;28;658940;-70
2022/12/28 05:41:05;;;;;;;35.23;11.40;;;-2.00;99.90;;;;;;4428131;28;658529;-70
2022/12/28 05:43:52;;;;;;;28.17;11.13;;;-2.00;99.90;;;;;;4417701;28;660003;-71
2022/12/28 05:46:40;;;;;;;35.37;12.47;;;-2.00;99.90;;;;;;4422884;28;658800;-70
2022/12/28 05:49:29;;;;;;;37.90;13.60;;;-2.10;99.90;;;;;;4457395;28;659852;-70
2022/12/28 05:52:16;;;;;;;30.00;9.70;;;-2.10;99.90;;;;;;4432297;28;658162;-71
2022/12/28 05:55:03;;;;;;;25.93;8.90;;;-2.10;99.90;;;;;;4453357;28;658270;-70
2022/12/28 05:57:51;;;;;;;26.73;8.87;;;-2.10;99.90;;;;;;4434305;28;657810;-70
2022/12/28 06:00:38;;;;;;;28.17;8.75;;;-2.10;99.90;;;;;;4456383;28;658513;-70
2022/12/28 06:03:25;;;;;;;23.80;8.70;;;-2.10;99.90;;;;;;4433191;28;657694;-69
2022/12/28 06:06:14;;;;;;;24.13;9.27;;;-2.20;99.90;;;;;;4458013;28;658480;-71
2022/12/28 06:09:02;;;;;;;20.53;9.50;;;-2.20;99.90;;;;;;4432244;28;658635;-71
2022/12/28 06:11:49;;;;;;;27.70;10.17;;;-2.20;99.90;;;;;;4447380;28;657194;-70
2022/12/28 06:14:36;;;;;;;31.10;13.48;;;-2.30;99.90;;;;;;4433501;28;658518;-70
2022/12/28 06:17:23;;;;;;;36.77;15.37;;;-2.30;99.90;;;;;;4448322;28;658357;-71
2022/12/28 06:20:11;;;;;;;33.20;13.40;;;-2.30;99.90;;;;;;4431006;28;658421;-70
2022/12/28 06:23:00;;;;;;;26.23;10.43;;;-2.30;99.90;;;;;;4448611;28;658638;-70
2022/12/28 06:25:47;;;;;;;21.40;9.80;;;-2.30;99.90;;;;;;4428303;28;658955;-71
2022/12/28 06:28:36;;;;;;;27.93;11.00;;;-2.30;99.90;;;;;;4448164;28;657760;-72
2022/12/28 06:31:24;;;;;;;25.83;11.03;;;-2.30;99.90;;;;;;4419312;28;659349;-73
2022/12/28 06:34:11;;;;;;;49.30;19.80;;;-2.30;99.90;;;;;;4429186;28;658924;-72
2022/12/28 06:36:59;;;;;;;41.93;17.10;;;-2.20;99.90;;;;;;4446076;28;658755;-73
2022/12/28 06:39:47;;;;;;;33.27;14.17;;;-2.20;99.90;;;;;;4432076;28;658536;-72
2022/12/28 06:42:35;;;;;;;35.60;14.37;;;-2.20;99.90;;;;;;4447452;28;658389;-70
2022/12/28 06:45:22;;;;;;;21.67;7.93;;;-2.20;99.90;;;;;;4451561;28;658746;-72
2022/12/28 06:48:10;;;;;;;22.10;8.17;;;-2.20;99.90;;;;;;4449254;28;657218;-70
2022/12/28 06:50:57;;;;;;;23.47;8.20;;;-2.20;99.90;;;;;;4456674;28;658807;-72
2022/12/28 06:53:45;;;;;;;23.13;8.83;;;-2.20;99.90;;;;;;4448521;28;657511;-71
2022/12/28 06:56:35;;;;;;;24.40;8.87;;;-2.20;99.90;;;;;;4454291;28;659143;-73
2022/12/28 06:59:22;;;;;;;22.57;8.80;;;-2.10;99.90;;;;;;4426297;28;659097;-72
2022/12/28 07:02:09;;;;;;;23.87;9.37;;;-2.10;99.90;;;;;;4457820;28;657506;-73
2022/12/28 07:04:56;;;;;;;29.33;11.43;;;-2.00;99.90;;;;;;4433441;28;658429;-72
2022/12/28 07:07:45;;;;;;;33.97;13.17;;;-2.00;99.90;;;;;;4450480;28;658846;-73
2022/12/28 07:10:33;;;;;;;32.87;15.03;;;-1.90;99.90;;;;;;4432069;28;660373;-73
2022/12/28 07:13:22;;;;;;;45.27;16.90;;;-1.80;99.90;;;;;;4437708;28;659361;-70
2022/12/28 07:16:11;;;;;;;48.27;18.17;;;-1.70;99.90;;;;;;4446524;28;658575;-73
2022/12/28 07:18:59;;;;;;;40.93;17.13;;;-1.70;99.90;;;;;;4424117;28;660579;-72
2022/12/28 07:21:46;;;;;;;75.00;33.47;;;-1.60;99.90;;;;;;4420335;28;658342;-73
2022/12/28 07:24:33;;;;;;;83.13;35.93;;;-1.50;99.90;;;;;;4450058;28;660340;-73
2022/12/28 07:27:20;;;;;;;74.97;32.57;;;-1.40;99.90;;;;;;4435520;28;658230;-72
2022/12/28 07:30:10;;;;;;;76.00;32.20;;;-1.30;99.90;;;;;;4448995;28;659783;-73
2022/12/28 07:32:57;;;;;;;78.57;33.90;;;-1.30;99.90;;;;;;4423745;28;658809;-73
2022/12/28 07:35:45;;;;;;;80.60;32.03;;;-1.20;99.90;;;;;;4448552;28;658456;-70
2022/12/28 07:38:33;;;;;;;47.17;20.37;;;-1.00;99.90;;;;;;4453858;28;659959;-73
2022/12/28 07:41:21;;;;;;;49.50;20.70;;;-0.90;99.90;;;;;;4433248;28;658515;-71
2022/12/28 07:44:08;;;;;;;48.83;19.23;;;-0.70;99.90;;;;;;4450141;28;658787;-73
2022/12/28 07:46:57;;;;;;;51.63;21.87;;;-0.70;99.90;;;;;;4414293;28;658888;-73
2022/12/28 07:49:44;;;;;;;37.17;15.80;;;-0.50;99.90;;;;;;4451803;28;658841;-73
2022/12/28 07:52:32;;;;;;;49.90;16.93;;;-0.40;99.90;;;;;;4433546;28;659233;-74
2022/12/28 07:55:19;;;;;;;42.23;16.30;;;-0.20;99.90;;;;;;4452189;28;658889;-73
2022/12/28 07:58:06;;;;;;;33.27;13.87;;;-0.20;99.90;;;;;;4428925;28;658265;-73
2022/12/28 08:00:54;;;;;;;33.97;15.93;;;-0.10;99.90;;;;;;4450626;28;658494;-73
2022/12/28 08:03:42;;;;;;;30.70;14.43;;;0.10;99.90;;;;;;4430587;28;658505;-73
2022/12/28 08:06:30;;;;;;;34.77;15.20;;;0.20;99.90;;;;;;4451805;28;658106;-73
2022/12/28 08:09:17;;;;;;;44.67;19.87;;;0.20;99.90;;;;;;4431623;28;658921;-73
2022/12/28 08:12:05;;;;;;;45.87;20.33;;;0.30;99.90;;;;;;4446992;28;658375;-70
2022/12/28 08:14:53;;;;;;;46.87;20.30;;;0.40;99.90;;;;;;4448965;28;659090;-73
2022/12/28 08:17:40;;;;;;;41.77;18.17;;;0.50;99.90;;;;;;4439503;28;658155;-71
2022/12/28 08:20:29;;;;;;;38.97;16.93;;;0.50;99.90;;;;;;4446086;28;659129;-72
2022/12/28 08:23:16;;;;;;;32.43;14.50;;;0.60;99.90;;;;;;4416012;28;657994;-73
2022/12/28 08:26:07;;;;;;;35.67;15.57;;;0.70;99.90;;;;;;4444757;28;658696;-73
2022/12/28 08:28:56;;;;;;;31.27;14.55;;;0.80;99.90;;;;;;4423610;28;657636;-71
2022/12/28 08:31:44;;;;;;;34.17;14.53;;;1.00;99.90;;;;;;4452559;28;657535;-72
2022/12/28 08:34:31;;;;;;;25.10;11.93;;;1.20;99.90;;;;;;4429456;28;657632;-73
2022/12/28 08:37:20;;;;;;;26.47;12.00;;;1.30;99.90;;;;;;4454013;28;658062;-73
2022/12/28 08:40:08;;;;;;;35.30;13.50;;;1.50;99.90;;;;;;4434793;28;657825;-73
2022/12/28 08:42:57;;;;;;;25.87;12.17;;;1.70;99.90;;;;;;4429639;28;657993;-73
2022/12/28 08:45:44;;;;;;;24.93;12.27;;;1.80;99.90;;;;;;4434034;28;657650;-73
2022/12/28 08:48:32;;;;;;;29.70;12.07;;;2.00;99.90;;;;;;4434003;28;658128;-73
2022/12/28 08:51:20;;;;;;;33.00;15.23;;;2.10;99.90;;;;;;4454400;28;657136;-73
2022/12/28 08:54:09;;;;;;;29.25;13.60;;;2.20;99.90;;;;;;4421573;28;658080;-73
2022/12/28 08:56:56;;;;;;;30.17;14.47;;;2.30;99.90;;;;;;4426431;28;657778;-73
2022/12/28 08:59:43;;;;;;;30.42;14.38;;;2.50;99.90;;;;;;4452832;28;658809;-73
2022/12/28 09:02:30;;;;;;;32.83;15.50;;;2.60;99.90;;;;;;4434489;28;657929;-72
2022/12/28 09:05:18;;;;;;;27.17;13.07;;;2.80;99.90;;;;;;4447110;28;658358;-73
2022/12/28 09:08:06;;;;;;;34.37;13.83;;;3.40;99.90;;;;;;4436352;28;658398;-72
2022/12/28 09:10:54;;;;;;;25.17;12.70;;;4.00;99.90;;;;;;4447781;28;657858;-73
2022/12/28 09:13:41;;;;;;;26.80;12.97;;;4.40;99.90;;;;;;4428337;28;657455;-73
2022/12/28 09:16:29;;;;;;;28.10;12.67;;;4.90;99.90;;;;;;4450405;28;657880;-73
2022/12/28 09:19:16;;;;;;;26.53;12.20;;;5.20;99.90;;;;;;4430624;28;657658;-73
2022/12/28 09:22:03;;;;;;;30.63;13.70;;;5.40;99.90;;;;;;4454335;28;658897;-73
2022/12/28 09:24:50;;;;;;;26.53;12.23;;;5.40;99.90;;;;;;4428021;28;657491;-70
2022/12/28 09:27:39;;;;;;;29.97;11.63;;;5.50;99.90;;;;;;4441824;28;658777;-73
2022/12/28 09:30:26;;;;;;;27.37;12.67;;;5.60;99.90;;;;;;4433470;28;657414;-73
2022/12/28 09:36:19;;;;;;;24.50;11.90;;;5.70;99.90;;;;;;4426252;28;658192;-73
2022/12/28 09:39:07;;;;;;;29.57;13.50;;;5.80;99.90;;;;;;4428821;28;657992;-73
2022/12/28 09:41:55;;;;;;;23.40;12.07;;;5.70;99.90;;;;;;4443388;28;657840;-72
2022/12/28 09:44:48;;;;;;;23.60;11.97;;;5.60;99.90;;;;;;4428167;28;658869;-73
2022/12/28 09:47:37;;;;;;;29.37;12.67;;;5.40;99.90;;;;;;4422691;28;657748;-71
2022/12/28 09:50:29;;;;;;;33.47;15.03;;;5.20;99.90;;;;;;4455799;28;658023;-72
2022/12/28 09:53:23;;;;;;;31.67;14.37;;;5.10;99.90;;;;;;4436241;28;658224;-73
2022/12/28 09:56:22;;;;;;;40.13;17.08;;;5.10;99.90;;;;;;4414329;28;657616;-70
2022/12/28 09:59:15;;;;;;;43.27;19.00;;;4.40;99.90;;;;;;4432240;28;657967;-72
2022/12/28 10:02:03;;;;;;;31.53;13.43;;;4.10;99.90;;;;;;4430706;28;658108;-73
2022/12/28 10:04:51;;;;;;;35.77;16.63;;;4.00;99.90;;;;;;4433863;28;657991;-72
2022/12/28 10:07:38;;;;;;;36.50;14.23;;;4.10;99.90;;;;;;4455943;28;657922;-72
2022/12/28 10:10:25;;;;;;;32.67;12.73;;;4.10;99.90;;;;;;4438316;28;657474;-70
2022/12/28 10:13:16;;;;;;;23.57;9.77;;;4.10;99.90;;;;;;4453738;28;658921;-72
2022/12/28 10:16:04;;;;;;;13.73;6.60;;;4.00;99.90;;;;;;4433876;28;657393;-72
2022/12/28 10:18:53;;;;;;;17.50;7.63;;;4.00;99.90;;;;;;4434791;28;657012;-72
2022/12/28 10:21:40;;;;;;;25.63;9.47;;;4.10;99.90;;;;;;4435081;28;656640;-70
2022/12/28 10:24:28;;;;;;;26.90;8.60;;;4.10;99.90;;;;;;4456068;28;657502;-72
2022/12/28 10:27:20;;;;;;;18.07;7.63;;;4.10;99.90;;;;;;4445574;28;656866;-71
2022/12/28 10:30:14;;;;;;;20.30;7.77;;;3.90;99.90;;;;;;4433119;28;657853;-72
2022/12/28 10:33:01;;;;;;;15.53;5.70;;;3.90;99.90;;;;;;4434566;28;656723;-70
2022/12/28 10:35:51;;;;;;;17.70;7.23;;;3.80;99.90;;;;;;4452054;28;656419;-70
2022/12/28 10:38:38;;;;;;;16.47;5.97;;;3.90;99.90;;;;;;4430588;28;656433;-72
2022/12/28 10:41:33;;;;;;;20.00;6.70;;;4.00;99.90;;;;;;4435209;28;656723;-72
2022/12/28 10:44:22;;;;;;;17.97;5.63;;;4.00;99.90;;;;;;4412107;28;656955;-71
2022/12/28 10:47:16;;;;;;;18.23;6.20;;;4.10;99.90;;;;;;4454209;28;658168;-72
2022/12/28 10:50:04;;;;;;;21.27;8.50;;;4.10;99.90;;;;;;4431453;28;657383;-72
2022/12/28 10:52:57;;;;;;;22.23;8.00;;;4.10;99.90;;;;;;4433338;28;656999;-73
2022/12/28 10:55:45;;;;;;;14.80;5.90;;;4.10;99.90;;;;;;4448054;28;656537;-73
2022/12/28 10:58:32;;;;;;;12.00;5.20;;;4.20;99.90;;;;;;4435426;28;656520;-73
2022/12/28 11:01:25;;;;;;;17.35;5.43;;;4.20;99.90;;;;;;4456276;28;656499;-72
2022/12/28 11:04:17;;;;;;;15.15;5.70;;;4.20;99.90;;;;;;4411129;28;657855;-73
2022/12/28 11:07:04;;;;;;;16.23;5.97;;;4.30;99.90;;;;;;4434092;28;656747;-73
2022/12/28 11:09:53;;;;;;;17.48;7.65;;;4.30;99.90;;;;;;4434716;28;656425;-72
2022/12/28 11:12:41;;;;;;;23.87;9.60;;;4.40;99.90;;;;;;4430966;28;656757;-71
2022/12/28 11:15:30;;;;;;;28.47;11.20;;;4.40;99.90;;;;;;4453541;28;656751;-73
2022/12/28 11:18:17;;;;;;;27.23;10.63;;;4.50;99.90;;;;;;4423280;28;658796;-73
2022/12/28 11:21:05;;;;;;;23.83;10.30;;;4.60;99.90;;;;;;4439964;28;657825;-73
2022/12/28 11:23:52;;;;;;;19.63;7.93;;;4.60;99.90;;;;;;4419677;28;657915;-73
2022/12/28 11:26:42;;;;;;;24.00;8.80;;;4.60;99.90;;;;;;4453687;28;657052;-73
2022/12/28 11:29:29;;;;;;;21.73;8.93;;;4.50;99.90;;;;;;4426305;28;656827;-73
2022/12/28 11:32:18;;;;;;;17.37;7.80;;;4.60;99.90;;;;;;4390579;28;657240;-69
2022/12/28 11:35:07;;;;;;;26.93;11.83;;;4.60;99.90;;;;;;4241638;28;656507;-69
2022/12/28 11:37:55;;;;;;;31.43;12.20;;;4.80;99.90;;;;;;4269178;28;657933;-70
2022/12/28 11:40:51;;;;;;;23.53;10.23;;;5.00;99.90;;;;;;4421513;28;658782;-73
2022/12/28 11:43:57;;;;;;;31.57;13.27;;;5.10;99.90;;;;;;4417120;28;658122;-73
2022/12/28 11:47:04;;;;;;;30.20;12.00;;;5.20;99.90;;;;;;4423807;28;657737;-73
2022/12/28 11:49:52;;;;;;;35.73;14.23;;;5.40;99.90;;;;;;4391478;28;658605;-73
2022/12/28 11:52:50;;;;;;;38.80;16.20;;;5.70;99.90;;;;;;4437984;28;657659;-71
2022/12/28 11:55:48;;;;;;;46.57;21.17;;;5.80;99.90;;;;;;4399164;28;657845;-73
2022/12/28 11:59:05;;;;;;;47.07;20.03;;;6.50;99.90;;;;;;4409785;28;657918;-71
2022/12/28 12:01:53;;;;;;;42.70;17.63;;;7.60;99.90;;;;;;4422185;28;657934;-73
2022/12/28 12:04:41;;;;;;;36.63;15.37;;;8.70;99.90;;;;;;4429817;28;657995;-70
2022/12/28 12:07:47;;;;;;;20.53;9.57;;;9.50;97.70;;;;;;4450612;28;658086;-74
2022/12/28 12:10:35;;;;;;;16.30;6.67;;;10.90;85.00;;;;;;4431753;28;657315;-73
2022/12/28 12:13:43;;;;;;;12.50;6.07;;;11.20;70.90;;;;;;4430202;28;658216;-73
2022/12/28 12:16:35;;;;;;;15.43;5.90;;;11.80;67.60;;;;;;4407341;28;657571;-72
2022/12/28 12:19:25;;;;;;;13.07;5.87;;;11.70;65.50;;;;;;4433216;28;658525;-74
2022/12/28 12:22:14;;;;;;;10.40;5.17;;;11.70;64.40;;;;;;4429963;28;658103;-73
2022/12/28 12:25:03;;;;;;;12.43;5.33;;;11.70;60.90;;;;;;4417297;28;658630;-74
2022/12/28 12:27:53;;;;;;;12.73;4.90;;;11.40;61.90;;;;;;4427502;28;657383;-71
2022/12/28 12:30:42;;;;;;;8.73;4.37;;;11.80;62.30;;;;;;4426290;28;657588;-70
2022/12/28 12:33:34;;;;;;;9.77;4.20;;;11.10;61.80;;;;;;4452245;28;656263;-73
2022/12/28 12:36:33;;;;;;;8.33;3.47;;;11.20;59.50;;;;;;4428920;28;656384;-70
2022/12/28 12:39:27;;;;;;;10.97;4.97;;;11.50;59.60;;;;;;4408994;28;657086;-71
2022/12/28 12:42:17;;;;;;;11.27;4.30;;;10.70;63.20;;;;;;4426332;28;658217;-72
2022/12/28 12:45:08;;;;;;;7.43;3.60;;;10.80;62.90;;;;;;4424437;28;657674;-71
2022/12/28 12:48:16;;;;;;;10.90;4.10;;;11.10;60.80;;;;;;4413195;28;656508;-70
2022/12/28 12:51:14;;;;;;;9.20;3.80;;;11.30;60.10;;;;;;4425988;28;657695;-69
2022/12/28 12:54:08;;;;;;;8.10;3.40;;;10.40;61.40;;;;;;4431030;28;656725;-68
2022/12/28 12:56:58;;;;;;;5.93;2.63;;;8.90;68.00;;;;;;4414930;28;656605;-70
2022/12/28 13:00:02;;;;;;;6.00;2.67;;;7.60;71.60;;;;;;4435589;28;655406;-71
2022/12/28 13:03:04;;;;;;;10.40;2.80;;;7.20;74.10;;;;;;4421903;28;655114;-70
2022/12/28 13:05:53;;;;;;;6.90;2.53;;;6.70;79.00;;;;;;4400815;28;657657;-71
2022/12/28 13:08:46;;;;;;;5.97;2.73;;;6.60;80.70;;;;;;4434555;28;655809;-71
2022/12/28 13:11:35;;;;;;;8.00;3.47;;;6.40;84.40;;;;;;4429797;28;656345;-72
2022/12/28 13:14:23;;;;;;;10.43;3.88;;;6.30;86.60;;;;;;4428239;28;655915;-71
2022/12/28 13:17:13;;;;;;;9.63;3.50;;;6.30;89.10;;;;;;4432253;28;656294;-70
2022/12/28 13:20:10;;;;;;;12.10;4.13;;;6.40;89.40;;;;;;4427886;28;656159;-71
2022/12/28 13:22:57;;;;;;;8.07;2.73;;;6.30;91.20;;;;;;4403821;28;656647;-72
2022/12/28 13:25:48;;;;;;;6.20;2.50;;;6.50;90.10;;;;;;4446670;28;656673;-71
2022/12/28 13:28:36;;;;;;;6.80;3.30;;;6.70;91.00;;;;;;4432528;28;655533;-71
2022/12/28 13:31:24;;;;;;;5.87;3.00;;;7.40;86.50;;;;;;4457209;28;655608;-72
2022/12/28 13:34:17;;;;;;;6.57;2.93;;;8.00;84.20;;;;;;4434421;28;656401;-74
2022/12/28 13:37:07;;;;;;;8.47;3.30;;;9.10;80.30;;;;;;4429462;28;655489;-74
2022/12/28 13:40:09;;;;;;;8.77;3.73;;;9.50;78.30;;;;;;4430519;28;655657;-74
2022/12/28 13:43:14;;;;;;;6.83;3.17;;;9.40;72.70;;;;;;4424304;28;655330;-73
2022/12/28 13:46:06;;;;;;;7.53;3.70;;;9.00;75.40;;;;;;4413826;28;655965;-72
2022/12/28 13:48:54;;;;;;;8.83;3.60;;;8.20;78.20;;;;;;4432567;28;656375;-72
2022/12/28 13:51:41;;;;;;;9.50;3.53;;;7.60;82.20;;;;;;4426539;28;656318;-73
2022/12/28 13:54:28;;;;;;;6.80;2.93;;;8.10;81.60;;;;;;4447885;28;655624;-72
2022/12/28 13:57:15;;;;;;;8.93;3.57;;;8.70;78.70;;;;;;4431007;28;655899;-73
2022/12/28 14:00:05;;;;;;;8.73;3.67;;;8.10;80.00;;;;;;4448862;28;656258;-72
2022/12/28 14:02:53;;;;;;;11.02;3.60;;;8.80;78.40;;;;;;4427576;28;656285;-72
2022/12/28 14:05:42;;;;;;;6.80;3.17;;;9.50;76.30;;;;;;4427779;28;656718;-71
2022/12/28 14:08:29;;;;;;;6.07;3.30;;;9.30;73.40;;;;;;4447911;28;656475;-72
2022/12/28 14:11:17;;;;;;;10.30;4.10;;;9.80;71.70;;;;;;4432541;28;655724;-72
2022/12/28 14:14:04;;;;;;;7.83;3.80;;;9.70;71.10;;;;;;4450918;28;656557;-71
2022/12/28 14:16:52;;;;;;;8.83;3.63;;;9.40;71.30;;;;;;4430228;28;656084;-70
2022/12/28 14:19:40;;;;;;;7.90;3.37;;;8.90;71.90;;;;;;4447990;28;656138;-70
2022/12/28 14:22:29;;;;;;;9.27;3.83;;;7.80;76.60;;;;;;4451754;28;657343;-70
2022/12/28 14:25:18;;;;;;;6.40;3.25;;;7.20;79.50;;;;;;4433523;28;656026;-72
2022/12/28 14:28:05;;;;;;;10.57;3.97;;;6.90;81.70;;;;;;4441944;28;656263;-71
2022/12/28 14:30:53;;;;;;;10.10;4.10;;;6.50;84.60;;;;;;4447231;28;657844;-73
2022/12/28 14:33:50;;;;;;;14.80;5.20;;;5.70;90.50;;;;;;4423356;28;657105;-71
2022/12/28 14:36:38;;;;;;;12.77;4.70;;;5.50;92.40;;;;;;4393941;28;657339;-71
2022/12/28 14:39:31;;;;;;;11.00;4.90;;;5.20;95.10;;;;;;4437131;28;656892;-73
2022/12/28 14:42:20;;;;;;;16.93;4.87;;;5.10;96.70;;;;;;4429919;28;657082;-73